Whites Chapel, Alabama
Current Conditions -  °F | °C
As of 9:53 AM on Sunday 21 Dec 2014 (Local Time) from KBHM Reporting Station
Broken Clouds Broken Clouds  
Wind Chill: 45°   Ceiling: 1000
Heat Index: 49°   Visibility: 9mi
Dew Point: 43°   Wind: 10mph
Humidity: 80%   Direction: 80°E
Pressure: 30.2"   Gusts: NA
Location:  33.6426°N, 86.5754°W
Report Text: KBHM 211553Z 08009KT 9SM BKN010 09/06 A3020 RMK AO2 SLP229 T00940061
Loading
Personal Weather Stations






























Interactive Weather Map New forecast layout! Learn more

10-Day Weather Forecast

Advertisements
Track Severe Weather on mobile